Time;durP1;ratioP1;P1;durP2;ratioP2;P2;SDS_P1;SDS_P2;PMS_P1;PMS_P2;Temp;Humidity;BMP_temperature;BMP_pressure;BME280_temperature;BME280_humidity;BME280_pressure;Samples;Min_cycle;Max_cycle;Signal;HPM_P1;HPM_P2
2022/06/20 00:01:39;;;;;;;0.00;0.00;;;;;;;13.69;91.70;101307.50;10539595;28;20040;-76
2022/06/20 00:06:40;;;;;;;0.10;0.10;;;;;;;13.62;91.65;101334.09;10537351;28;20118;-75
2022/06/20 00:11:45;;;;;;;0.00;0.00;;;;;;;13.86;91.84;101338.88;10536949;28;20056;-75
2022/06/20 00:16:47;;;;;;;0.00;0.00;;;;;;;13.87;90.89;101325.09;10519309;28;20048;-75
2022/06/20 00:21:49;;;;;;;0.00;0.00;;;;;;;13.68;92.39;101323.88;10537676;28;20044;-75
2022/06/20 00:26:50;;;;;;;0.00;0.00;;;;;;;13.78;91.19;101348.22;10518074;28;20551;-75
2022/06/20 00:31:52;;;;;;;0.08;0.08;;;;;;;13.78;90.74;101356.00;10521168;28;20043;-75
2022/06/20 00:36:54;;;;;;;0.10;0.10;;;;;;;13.69;91.37;101360.97;10536573;28;20093;-75
2022/06/20 00:41:55;;;;;;;0.10;0.00;;;;;;;13.51;91.98;101374.41;10536065;28;20406;-75
2022/06/20 00:47:03;;;;;;;0.00;0.00;;;;;;;13.59;92.12;101365.09;10525768;28;20090;-76
2022/06/20 00:52:50;;;;;;;1.27;0.15;;;;;;;13.71;90.23;101380.00;10539880;28;20098;-75
2022/06/20 00:58:16;;;;;;;1.02;0.55;;;;;;;13.74;90.32;101377.47;10483366;28;20071;-76
2022/06/20 01:03:24;;;;;;;0.15;0.10;;;;;;;13.61;90.71;101356.50;10517995;28;20498;-75
2022/06/20 01:08:51;;;;;;;0.00;0.00;;;;;;;13.55;94.35;101368.47;10522127;28;20492;-75
2022/06/20 01:13:53;;;;;;;0.70;0.50;;;;;;;13.52;93.39;101369.25;10521326;28;20046;-75
2022/06/20 01:18:58;;;;;;;0.00;0.00;;;;;;;13.73;92.40;101379.19;10535386;28;20109;-75
2022/06/20 01:24:10;;;;;;;0.52;0.10;;;;;;;13.66;91.27;101392.84;10538451;28;20032;-75
2022/06/20 01:29:12;;;;;;;0.10;0.10;;;;;;;13.60;91.85;101429.84;10529955;28;20094;-75
2022/06/20 01:34:16;;;;;;;0.10;0.10;;;;;;;13.56;92.59;101447.84;10525441;28;20044;-75
2022/06/20 01:39:19;;;;;;;0.00;0.00;;;;;;;13.45;92.59;101491.63;10517198;28;20052;-76
2022/06/20 01:44:22;;;;;;;0.10;0.10;;;;;;;13.47;93.59;101508.06;10538885;28;20052;-75
2022/06/20 01:49:24;;;;;;;0.00;0.00;;;;;;;13.47;92.84;101516.72;10545321;28;20044;-76
2022/06/20 01:54:30;;;;;;;0.10;0.10;;;;;;;13.42;92.92;101513.13;10547085;28;20084;-75
2022/06/20 01:59:36;;;;;;;0.10;0.10;;;;;;;13.53;93.42;101510.78;10542627;28;20116;-75
2022/06/20 02:04:40;;;;;;;0.00;0.00;;;;;;;13.55;92.32;101496.19;10542851;28;20044;-75
2022/06/20 02:09:42;;;;;;;0.40;0.10;;;;;;;13.68;91.90;101474.03;10542774;28;20191;-75
2022/06/20 02:14:50;;;;;;;0.25;0.25;;;;;;;13.11;92.67;101481.28;10528051;28;20031;-75
2022/06/20 02:19:54;;;;;;;0.00;0.00;;;;;;;12.93;92.89;101471.38;10524009;28;20201;-75
2022/06/20 02:25:02;;;;;;;0.38;0.13;;;;;;;13.26;91.79;101467.88;10545179;28;20040;-75
2022/06/20 02:30:05;;;;;;;4.38;0.17;;;;;;;12.76;93.72;101465.78;10549980;28;20445;-75
2022/06/20 02:35:12;;;;;;;0.10;0.10;;;;;;;12.73;91.94;101451.88;10543006;28;20418;-75
2022/06/20 02:40:19;;;;;;;0.10;0.00;;;;;;;12.61;92.61;101442.09;10543211;28;20052;-75
2022/06/20 02:45:22;;;;;;;0.55;0.20;;;;;;;12.44;95.68;101441.66;10541325;28;20040;-75
2022/06/20 02:50:30;;;;;;;0.03;0.03;;;;;;;12.44;96.17;101431.31;10540824;28;20044;-75
2022/06/20 02:55:34;;;;;;;0.05;0.05;;;;;;;12.36;96.68;101431.13;10510022;28;20052;-75
2022/06/20 03:01:08;;;;;;;0.00;0.00;;;;;;;12.24;98.27;101411.00;10546743;28;20089;-75
2022/06/20 03:06:24;;;;;;;0.17;0.15;;;;;;;12.38;98.53;101401.03;10542253;28;20038;-75
2022/06/20 03:11:28;;;;;;;0.10;0.03;;;;;;;12.47;97.79;101392.66;10517523;28;20376;-75
2022/06/20 03:16:32;;;;;;;0.00;0.00;;;;;;;12.30;98.06;101375.00;10545184;28;20040;-75
2022/06/20 03:21:38;;;;;;;0.25;0.20;;;;;;;12.29;99.37;101357.75;10541977;28;20036;-75
2022/06/20 03:26:40;;;;;;;0.47;0.30;;;;;;;12.29;99.26;101352.56;10538895;28;20032;-75
2022/06/20 03:31:43;;;;;;;0.00;0.00;;;;;;;12.38;98.16;101347.66;10538330;28;20542;-74
2022/06/20 03:36:47;;;;;;;0.32;0.32;;;;;;;12.45;97.69;101348.66;10520826;28;20479;-75
2022/06/20 03:41:50;;;;;;;0.08;0.08;;;;;;;12.48;97.12;101337.53;10519537;28;20484;-75
2022/06/20 03:47:11;;;;;;;0.05;0.05;;;;;;;12.59;95.17;101318.00;10537856;28;20051;-75
2022/06/20 03:52:26;;;;;;;0.10;0.10;;;;;;;12.61;94.42;101318.94;10538331;28;20051;-75
2022/06/20 03:57:45;;;;;;;0.45;0.45;;;;;;;12.65;92.54;101325.91;10536197;28;20048;-75
2022/06/20 04:03:01;;;;;;;0.20;0.20;;;;;;;12.74;91.33;101319.22;10537733;28;20081;-75
2022/06/20 04:08:08;;;;;;;0.13;0.10;;;;;;;12.68;91.20;101307.91;10536765;28;20055;-75
2022/06/20 04:13:22;;;;;;;0.15;0.15;;;;;;;12.50;92.59;101291.94;10518639;28;20132;-75
2022/06/20 04:18:29;;;;;;;0.00;0.00;;;;;;;12.50;92.13;101294.50;10518306;28;20529;-75
2022/06/20 04:23:39;;;;;;;0.05;0.05;;;;;;;12.51;92.44;101314.34;10536282;28;20491;-75
2022/06/20 04:28:47;;;;;;;0.10;0.10;;;;;;;12.69;92.65;101316.50;10517745;28;20136;-75
2022/06/20 04:33:59;;;;;;;0.20;0.20;;;;;;;13.14;90.98;101351.19;10543393;28;20445;-75
2022/06/20 04:39:12;;;;;;;0.43;0.20;;;;;;;13.52;89.78;101350.28;10511879;28;20094;-75
2022/06/20 04:44:16;;;;;;;0.00;0.00;;;;;;;13.49;89.05;101353.69;10514987;28;20075;-75
2022/06/20 04:49:18;;;;;;;0.00;0.00;;;;;;;13.60;88.71;101361.66;10538543;28;20483;-75
2022/06/20 04:54:21;;;;;;;0.00;0.00;;;;;;;13.76;89.71;101368.03;10536792;28;20483;-75
2022/06/20 04:59:28;;;;;;;0.43;0.40;;;;;;;13.82;90.27;101375.91;10534833;28;20566;-75
2022/06/20 05:04:36;;;;;;;0.22;0.20;;;;;;;13.87;89.40;101382.06;10531478;28;20047;-75
2022/06/20 05:09:52;;;;;;;8.00;0.20;;;;;;;13.85;90.08;101388.06;10515235;28;20150;-75
2022/06/20 05:15:28;;;;;;;0.08;0.08;;;;;;;14.05;89.60;101384.16;10495456;28;20051;-75
2022/06/20 05:20:34;;;;;;;0.10;0.10;;;;;;;14.05;88.09;101401.41;10468855;28;20140;-76
2022/06/20 05:25:37;;;;;;;0.22;0.22;;;;;;;14.02;85.59;101406.53;10516595;28;20048;-76
2022/06/20 05:30:41;;;;;;;1.08;0.08;;;;;;;14.14;85.13;101411.09;10534062;28;20067;-75
2022/06/20 05:35:52;;;;;;;0.00;0.00;;;;;;;14.36;85.99;101417.53;10535344;28;20445;-76
2022/06/20 05:40:59;;;;;;;0.00;0.00;;;;;;;14.46;85.19;101414.28;10534061;28;20052;-75
2022/06/20 05:46:10;;;;;;;0.98;0.80;;;;;;;14.55;84.22;101419.63;10526066;28;20051;-76
2022/06/20 05:51:15;;;;;;;0.30;0.10;;;;;;;14.86;81.91;101424.50;10515971;28;20052;-75
2022/06/20 05:56:23;;;;;;;0.28;0.10;;;;;;;15.20;80.13;101419.81;10534820;28;20106;-75
2022/06/20 06:01:31;;;;;;;0.32;0.25;;;;;;;15.18;77.02;101437.13;10532761;28;20093;-74
2022/06/20 06:06:40;;;;;;;0.10;0.10;;;;;;;14.83;75.12;101445.19;10514083;28;20097;-75
2022/06/20 06:11:57;;;;;;;0.20;0.20;;;;;;;15.13;75.57;101447.41;10517101;28;20052;-76
2022/06/20 06:17:31;;;;;;;0.00;0.00;;;;;;;15.18;75.22;101448.34;10531391;28;20098;-74
2022/06/20 06:22:46;;;;;;;0.35;0.28;;;;;;;15.00;76.20;101458.47;10531696;28;20050;-75
2022/06/20 06:27:49;;;;;;;0.03;0.03;;;;;;;15.07;74.47;101448.19;10532000;28;20040;-75
2022/06/20 06:33:20;;;;;;;0.35;0.20;;;;;;;15.18;74.76;101463.06;10537987;28;20047;-74
2022/06/20 06:38:33;;;;;;;0.47;0.20;;;;;;;15.45;73.48;101457.41;10515813;28;20074;-74
2022/06/20 06:43:41;;;;;;;0.95;0.15;;;;;;;15.70;73.42;101462.94;10518722;28;20053;-76
2022/06/20 06:48:50;;;;;;;0.10;0.10;;;;;;;16.44;73.22;101453.47;10498453;28;20522;-74
2022/06/20 06:54:03;;;;;;;0.10;0.10;;;;;;;16.27;70.36;101457.63;10531682;28;20507;-75
2022/06/20 06:59:15;;;;;;;0.10;0.10;;;;;;;16.63;68.76;101454.53;10560265;28;20545;-75
2022/06/20 07:04:57;;;;;;;0.10;0.10;;;;;;;17.10;68.58;101455.81;10558688;28;20073;-76
2022/06/20 07:09:59;;;;;;;0.15;0.15;;;;;;;17.10;67.12;101462.78;10541349;28;20110;-75
2022/06/20 07:15:07;;;;;;;0.08;0.08;;;;;;;16.63;63.89;101458.88;10524601;28;20040;-77
2022/06/20 07:20:11;;;;;;;1.00;0.22;;;;;;;16.85;66.75;101459.94;10547307;28;20070;-75
2022/06/20 07:25:19;;;;;;;0.55;0.32;;;;;;;17.01;65.20;101458.38;10537507;28;20078;-75
2022/06/20 07:30:28;;;;;;;0.17;0.17;;;;;;;17.07;64.20;101461.03;10521589;28;20079;-75
2022/06/20 07:35:49;;;;;;;0.00;0.00;;;;;;;17.59;62.01;101457.03;10533427;28;20560;-76
2022/06/20 07:40:51;;;;;;;0.17;0.17;;;;;;;18.27;59.74;101457.34;10519675;28;20067;-74
2022/06/20 07:45:55;;;;;;;0.13;0.13;;;;;;;18.07;58.90;101462.50;10538367;28;20094;-77
2022/06/20 07:51:19;;;;;;;0.55;0.28;;;;;;;17.28;59.33;101470.72;10537358;28;20418;-77
2022/06/20 07:57:08;;;;;;;0.10;0.10;;;;;;;16.96;59.12;101468.75;10513708;28;20094;-78
2022/06/20 08:02:19;;;;;;;0.10;0.10;;;;;;;18.55;56.63;101460.00;10522886;28;20051;-75
2022/06/20 08:07:42;;;;;;;0.57;0.20;;;;;;;19.16;54.40;101458.31;10514113;28;20461;-75
2022/06/20 08:12:56;;;;;;;0.80;0.52;;;;;;;18.59;56.36;101451.31;10513823;28;20071;-75
2022/06/20 08:17:59;;;;;;;0.00;0.00;;;;;;;19.00;54.44;101453.13;10544186;28;20147;-75
2022/06/20 08:23:09;;;;;;;0.30;0.20;;;;;;;18.64;55.04;101456.53;10538627;28;20039;-75
2022/06/20 08:28:18;;;;;;;1.45;0.95;;;;;;;19.53;52.89;101465.22;10536247;28;20046;-75
2022/06/20 08:33:25;;;;;;;0.00;0.00;;;;;;;17.88;55.82;101469.34;10544297;28;20036;-76
2022/06/20 08:38:44;;;;;;;0.10;0.10;;;;;;;18.19;56.72;101474.72;10532193;28;20115;-75
2022/06/20 08:44:21;;;;;;;0.20;0.10;;;;;;;17.98;57.02;101470.28;10533387;28;20506;-75
2022/06/20 08:50:08;;;;;;;1.30;0.45;;;;;;;18.93;55.73;101476.59;10507165;28;20070;-75
2022/06/20 08:56:09;;;;;;;0.22;0.22;;;;;;;19.42;53.16;101480.91;10534413;28;20040;-75
2022/06/20 09:01:32;;;;;;;0.10;0.10;;;;;;;19.42;53.06;101487.03;10506486;28;20052;-76
2022/06/20 09:06:53;;;;;;;0.43;0.20;;;;;;;18.57;56.09;101484.38;10533916;28;20036;-75
2022/06/20 09:12:22;;;;;;;0.00;0.00;;;;;;;18.00;56.20;101492.00;10537746;28;20040;-76
2022/06/20 09:17:35;;;;;;;0.00;0.00;;;;;;;19.10;56.86;101492.28;10534339;28;20047;-75
2022/06/20 09:22:55;;;;;;;0.25;0.10;;;;;;;18.35;57.71;101497.38;10540128;28;20064;-78
2022/06/20 09:28:25;;;;;;;0.17;0.10;;;;;;;19.52;56.48;101502.66;10514923;28;20388;-75
2022/06/20 09:34:00;;;;;;;0.03;0.03;;;;;;;19.76;52.39;101507.00;10528404;28;20487;-77
2022/06/20 09:39:29;;;;;;;0.20;0.20;;;;;;;19.99;50.03;101503.47;10512745;28;20036;-75
2022/06/20 09:44:37;;;;;;;0.30;0.20;;;;;;;20.80;46.97;101498.69;10528363;28;20044;-75
2022/06/20 09:50:01;;;;;;;0.60;0.40;;;;;;;19.36;47.28;101501.84;10533765;28;20044;-76
2022/06/20 09:55:39;;;;;;;0.20;0.10;;;;;;;19.66;47.99;101507.00;10515523;28;20050;-74
2022/06/20 10:01:21;;;;;;;0.08;0.08;;;;;;;18.92;50.19;101511.41;10541156;28;20044;-77
2022/06/20 10:06:39;;;;;;;0.32;0.20;;;;;;;19.91;49.50;101509.59;10540254;28;20044;-75
2022/06/20 10:11:52;;;;;;;0.63;0.28;;;;;;;20.60;46.33;101503.16;10511695;28;20502;-78
2022/06/20 10:17:26;;;;;;;0.15;0.10;;;;;;;20.96;45.09;101515.19;10522918;28;20040;-75
2022/06/20 10:23:19;;;;;;;0.00;0.00;;;;;;;21.39;44.52;101509.56;10500956;28;20052;-76
2022/06/20 10:28:36;;;;;;;0.10;0.08;;;;;;;19.77;43.23;101527.03;10493546;28;20056;-77
2022/06/20 10:33:46;;;;;;;0.15;0.10;;;;;;;20.75;42.02;101511.81;10536593;28;20048;-77
2022/06/20 10:39:22;;;;;;;0.85;0.30;;;;;;;21.34;42.34;101516.56;10538174;28;20082;-77
2022/06/20 10:44:43;;;;;;;0.10;0.10;;;;;;;21.76;42.77;101516.19;10529865;28;20513;-76
2022/06/20 10:50:04;;;;;;;0.20;0.20;;;;;;;19.98;46.59;101523.50;10506641;28;20055;-76
2022/06/20 10:55:36;;;;;;;0.00;0.00;;;;;;;21.48;41.67;101527.81;10541300;28;20048;-75
2022/06/20 11:00:44;;;;;;;0.28;0.10;;;;;;;20.80;41.76;101524.88;10535591;28;20437;-76
2022/06/20 11:05:53;;;;;;;0.13;0.10;;;;;;;20.20;40.79;101542.63;10521179;28;20052;-78
2022/06/20 11:11:33;;;;;;;0.00;0.00;;;;;;;21.92;42.19;101530.88;10503956;28;20540;-76
2022/06/20 11:16:57;;;;;;;1.55;0.10;;;;;;;21.70;40.62;101538.13;10526359;28;20419;-75
2022/06/20 11:22:22;;;;;;;0.50;0.20;;;;;;;22.06;40.32;101532.47;10540383;28;20497;-75
2022/06/20 11:27:39;;;;;;;0.10;0.10;;;;;;;21.37;41.62;101543.63;10538237;28;20052;-76
2022/06/20 11:33:01;;;;;;;0.10;0.10;;;;;;;21.87;39.86;101537.94;10538706;28;20070;-76
2022/06/20 11:38:16;;;;;;;0.03;0.03;;;;;;;21.36;37.06;101544.53;10534756;28;20859;-75
2022/06/20 11:43:52;;;;;;;0.20;0.13;;;;;;;21.91;38.37;101544.88;10518914;28;20123;-75
2022/06/20 11:49:31;;;;;;;0.32;0.20;;;;;;;21.56;39.71;101554.81;10528097;28;20133;-76
2022/06/20 11:54:54;;;;;;;0.00;0.00;;;;;;;21.48;40.68;101567.13;10508568;28;20040;-79
2022/06/20 12:00:03;;;;;;;0.10;0.10;;;;;;;20.53;39.57;101561.66;10532136;28;20155;-76
2022/06/20 12:05:33;;;;;;;0.30;0.20;;;;;;;22.14;40.04;101568.25;10531297;28;20084;-75
2022/06/20 12:10:55;;;;;;;0.00;0.00;;;;;;;21.61;38.10;101565.28;10534158;28;20112;-77
2022/06/20 12:16:09;;;;;;;0.17;0.10;;;;;;;21.34;39.21;101563.75;10529895;28;20036;-77
2022/06/20 12:26:39;;;;;;;0.25;0.22;;;;;;;21.75;41.63;101565.16;10530849;28;20044;-75
2022/06/20 12:31:46;;;;;;;0.00;0.00;;;;;;;22.22;38.37;101569.91;10530649;28;20051;-75
2022/06/20 12:37:14;;;;;;;0.73;0.25;;;;;;;20.40;39.64;101583.53;10525327;28;20044;-76
2022/06/20 12:42:41;;;;;;;0.00;0.00;;;;;;;19.61;41.50;101575.84;10515079;28;20093;-75
2022/06/20 12:48:12;;;;;;;0.00;0.00;;;;;;;21.66;40.53;101567.88;10532941;28;20048;-76
2022/06/20 12:53:33;;;;;;;0.13;0.13;;;;;;;21.19;39.54;101580.47;10533246;28;20069;-75
2022/06/20 12:59:18;;;;;;;0.00;0.00;;;;;;;20.97;41.27;101580.63;10525803;28;20483;-77
2022/06/20 13:04:33;;;;;;;0.55;0.20;;;;;;;20.80;40.62;101583.38;10531757;28;20055;-77
2022/06/20 13:09:52;;;;;;;2.00;0.47;;;;;;;20.96;39.95;101580.66;10528315;28;20090;-74
2022/06/20 13:15:15;;;;;;;0.40;0.20;;;;;;;20.54;41.93;101586.94;10524021;28;20120;-76
2022/06/20 13:20:35;;;;;;;0.00;0.00;;;;;;;19.66;42.62;101589.78;10526798;28;20460;-76
2022/06/20 13:26:02;;;;;;;0.00;0.00;;;;;;;20.87;41.54;101571.97;10530400;28;20040;-76
2022/06/20 13:31:18;;;;;;;0.38;0.20;;;;;;;20.78;41.65;101579.88;10523417;28;20449;-76
2022/06/20 13:36:48;;;;;;;0.00;0.00;;;;;;;21.28;42.62;101584.78;10512696;28;20040;-77
2022/06/20 13:41:55;;;;;;;0.13;0.08;;;;;;;21.10;41.72;101585.78;10535027;28;20039;-77
2022/06/20 13:47:19;;;;;;;0.55;0.43;;;;;;;21.12;41.40;101584.03;10522634;28;20072;-76
2022/06/20 13:52:28;;;;;;;0.10;0.10;;;;;;;19.75;42.82;101599.38;10539512;28;20055;-77
2022/06/20 13:57:36;;;;;;;0.00;0.00;;;;;;;20.17;44.39;101589.72;10522323;28;20044;-77
2022/06/20 14:03:04;;;;;;;0.05;0.05;;;;;;;20.85;42.93;101592.06;10527115;28;20113;-75
2022/06/20 14:08:26;;;;;;;0.20;0.20;;;;;;;20.82;41.39;101592.06;10509909;28;20053;-75
2022/06/20 14:13:33;;;;;;;0.63;0.63;;;;;;;20.80;41.61;101601.69;10535715;28;20040;-75
2022/06/20 14:18:35;;;;;;;0.05;0.00;;;;;;;21.13;43.02;101596.25;10525127;28;20902;-76
2022/06/20 14:23:38;;;;;;;0.73;0.30;;;;;;;21.41;41.05;101596.88;10531729;28;20059;-75
2022/06/20 14:28:47;;;;;;;0.17;0.13;;;;;;;21.66;42.89;101591.47;10528029;28;20372;-75
2022/06/20 14:33:56;;;;;;;5.90;0.30;;;;;;;21.19;42.52;101594.44;10538507;28;20048;-75
2022/06/20 14:39:27;;;;;;;4.75;0.60;;;;;;;20.83;44.35;101592.94;10535345;28;20411;-75
2022/06/20 14:44:32;;;;;;;0.10;0.10;;;;;;;20.24;44.90;101604.50;10531767;28;20040;-78
2022/06/20 14:49:46;;;;;;;0.65;0.10;;;;;;;19.71;46.62;101618.53;10538119;28;20043;-76
2022/06/20 14:55:22;;;;;;;1.85;0.30;;;;;;;19.33;46.12;101618.53;10530185;28;20411;-75
2022/06/20 15:00:30;;;;;;;0.28;0.17;;;;;;;19.18;45.64;101621.13;10529773;28;20645;-75
2022/06/20 15:05:52;;;;;;;1.25;0.52;;;;;;;19.39;45.24;101614.19;10535158;28;20052;-77
2022/06/20 15:10:59;;;;;;;1.02;0.43;;;;;;;19.38;46.00;101604.63;10525101;28;20044;-75
2022/06/20 15:16:21;;;;;;;0.57;0.50;;;;;;;19.31;47.04;101617.69;10537532;28;20070;-75
2022/06/20 15:21:29;;;;;;;2.25;0.32;;;;;;;19.55;44.89;101608.06;10542814;28;20071;-76
2022/06/20 15:26:34;;;;;;;0.00;0.00;;;;;;;20.54;45.60;101610.50;10539646;28;20395;-75
2022/06/20 15:31:42;;;;;;;0.13;0.10;;;;;;;20.36;43.24;101602.75;10537385;28;20384;-74
2022/06/20 15:36:47;;;;;;;0.00;0.00;;;;;;;19.88;44.04;101614.19;10518229;28;20224;-75
2022/06/20 15:47:08;;;;;;;0.10;0.03;;;;;;;19.26;44.18;101611.56;10532718;28;20149;-75
2022/06/20 15:52:13;;;;;;;0.15;0.10;;;;;;;19.46;43.93;101603.72;10518187;28;20048;-75
2022/06/20 15:57:32;;;;;;;0.00;0.00;;;;;;;19.52;43.10;101597.63;10535289;28;20040;-77
2022/06/20 16:03:08;;;;;;;0.20;0.17;;;;;;;19.58;43.46;101607.22;10531414;28;20048;-75
2022/06/20 16:08:18;;;;;;;0.50;0.20;;;;;;;19.57;43.99;101601.13;10535554;28;20537;-76
2022/06/20 16:13:22;;;;;;;;;;;;;;;19.76;43.81;101603.72;10519042;28;20082;-77
2022/06/20 16:18:30;;;;;;;0.30;0.00;;;;;;;20.18;45.22;101594.06;10518405;28;20334;-75
2022/06/20 16:23:49;;;;;;;0.20;0.00;;;;;;;20.31;44.83;101591.41;10536400;28;20430;-75
2022/06/20 16:29:15;;;;;;;0.10;0.00;;;;;;;20.29;44.49;101592.28;10524771;28;20047;-75
2022/06/20 16:34:37;;;;;;;0.17;0.10;;;;;;;19.94;43.14;101598.50;10518536;28;20054;-77
2022/06/20 16:39:44;;;;;;;0.00;0.00;;;;;;;20.09;44.90;101604.56;10531756;28;20078;-76
2022/06/20 16:44:54;;;;;;;0.25;0.13;;;;;;;20.06;44.21;101600.22;10535697;28;20081;-77
2022/06/20 16:50:21;;;;;;;0.45;0.20;;;;;;;19.78;44.15;101605.47;10540624;28;20458;-75
2022/06/20 16:55:34;;;;;;;0.00;0.00;;;;;;;19.11;45.18;101616.75;10529705;28;20047;-75
2022/06/20 17:00:43;;;;;;;0.00;0.00;;;;;;;18.85;46.46;101609.72;10532019;28;20043;-75
2022/06/20 17:05:48;;;;;;;0.10;0.10;;;;;;;18.76;47.15;101610.56;10512509;28;20036;-75
2022/06/20 17:11:18;;;;;;;0.05;0.05;;;;;;;18.77;47.11;101606.22;10511745;28;20124;-75
2022/06/20 17:16:36;;;;;;;0.00;0.00;;;;;;;18.73;48.58;101607.06;10531731;28;20445;-80
2022/06/20 17:21:56;;;;;;;0.38;0.08;;;;;;;19.06;47.36;101605.44;10527533;28;20048;-80
2022/06/20 17:27:05;;;;;;;0.00;0.00;;;;;;;19.12;47.86;101600.22;10514296;28;20461;-81
2022/06/20 17:32:31;;;;;;;0.00;0.00;;;;;;;18.56;48.54;101594.84;10531915;28;20051;-79
2022/06/20 17:37:54;;;;;;;0.13;0.10;;;;;;;18.70;48.86;101606.19;10522281;28;20056;-80
2022/06/20 17:43:03;;;;;;;0.55;0.30;;;;;;;18.43;49.94;101606.94;10532098;28;20097;-80
2022/06/20 17:48:15;;;;;;;0.00;0.00;;;;;;;18.65;48.63;101601.81;10513590;28;20028;-80
2022/06/20 17:53:28;;;;;;;0.00;0.00;;;;;;;18.93;48.51;101592.38;10535322;28;20048;-80
2022/06/20 17:58:41;;;;;;;0.00;0.00;;;;;;;18.54;47.38;101599.16;10533734;28;20028;-80
2022/06/20 18:03:53;;;;;;;0.32;0.20;;;;;;;18.19;48.40;101595.53;10528598;28;20052;-80
2022/06/20 18:09:13;;;;;;;0.10;0.03;;;;;;;18.00;49.47;101601.50;10541063;28;20104;-80
2022/06/20 18:14:40;;;;;;;0.25;0.10;;;;;;;18.30;50.11;101599.94;10529458;28;20067;-80
2022/06/20 18:19:47;;;;;;;0.30;0.25;;;;;;;18.26;49.31;101604.28;10539909;28;20062;-80
2022/06/20 18:25:02;;;;;;;0.30;0.22;;;;;;;18.06;49.39;101617.19;10516876;28;20064;-80
2022/06/20 18:30:05;;;;;;;0.10;0.10;;;;;;;18.08;50.78;101621.53;10542202;28;20487;-80
2022/06/20 18:35:08;;;;;;;0.52;0.28;;;;;;;18.03;50.06;101623.25;10522098;28;20055;-79
2022/06/20 18:40:19;;;;;;;0.15;0.10;;;;;;;18.05;51.84;101624.16;10538177;28;20499;-80
2022/06/20 18:45:50;;;;;;;0.30;0.20;;;;;;;18.14;52.49;101635.47;10541845;28;20086;-80
2022/06/20 18:51:03;;;;;;;0.35;0.10;;;;;;;17.94;53.14;101628.38;10541832;28;20402;-80
2022/06/20 18:56:35;;;;;;;0.10;0.10;;;;;;;17.88;53.52;101628.34;10518880;28;20493;-80
2022/06/20 19:02:11;;;;;;;0.45;0.00;;;;;;;17.69;54.02;101637.75;10541754;28;20551;-80
2022/06/20 19:07:39;;;;;;;0.10;0.10;;;;;;;17.58;55.20;101635.06;10468947;28;20073;-80
2022/06/20 19:13:06;;;;;;;0.10;0.10;;;;;;;17.52;55.85;101629.78;10532595;28;20448;-79
2022/06/20 19:18:13;;;;;;;0.05;0.05;;;;;;;17.40;56.33;101639.22;10529718;28;20048;-80
2022/06/20 19:23:36;;;;;;;0.80;0.20;;;;;;;17.24;57.00;101643.41;10525451;28;20089;-80
2022/06/20 19:28:48;;;;;;;0.08;0.08;;;;;;;17.09;58.34;101649.31;10535948;28;20051;-80
2022/06/20 19:34:00;;;;;;;0.00;0.00;;;;;;;16.69;59.32;101647.97;10539039;28;20048;-80
2022/06/20 19:39:09;;;;;;;0.35;0.35;;;;;;;16.27;59.29;101655.22;10531816;28;20036;-80
2022/06/20 19:44:31;;;;;;;0.00;0.00;;;;;;;16.04;60.00;101653.16;10556209;28;20054;-80
2022/06/20 19:49:37;;;;;;;1.02;0.10;;;;;;;16.25;58.03;101664.72;10545801;28;20050;-81
2022/06/20 19:54:40;;;;;;;0.00;0.00;;;;;;;16.21;59.24;101669.00;10520420;28;20059;-81
2022/06/20 19:59:43;;;;;;;0.10;0.03;;;;;;;15.66;60.42;101669.84;10519565;28;20457;-81
2022/06/20 20:05:09;;;;;;;0.00;0.00;;;;;;;14.98;63.24;101673.78;10538629;28;20048;-80
2022/06/20 20:10:20;;;;;;;0.10;0.10;;;;;;;15.27;61.89;101680.38;10538497;28;20482;-81
2022/06/20 20:15:34;;;;;;;0.00;0.00;;;;;;;15.30;61.35;101701.22;10537063;28;20503;-81
2022/06/20 20:21:08;;;;;;;0.10;0.10;;;;;;;15.05;62.75;101698.13;10531093;28;20040;-81
2022/06/20 20:26:22;;;;;;;0.20;0.05;;;;;;;14.51;64.87;101708.22;10531664;28;20518;-81
2022/06/20 20:31:47;;;;;;;0.40;0.22;;;;;;;14.34;66.79;101710.41;10503789;28;20503;-80
2022/06/20 20:37:18;;;;;;;0.00;0.00;;;;;;;14.54;65.29;101712.56;10538609;28;20062;-80
2022/06/20 20:42:59;;;;;;;1.75;0.32;;;;;;;14.48;65.06;101713.34;10518917;28;20509;-82
2022/06/20 20:48:09;;;;;;;0.40;0.20;;;;;;;14.20;67.20;101702.31;10533141;28;20058;-81
2022/06/20 20:53:20;;;;;;;0.10;0.10;;;;;;;13.75;68.46;101703.81;10538314;28;20140;-81
2022/06/20 20:58:26;;;;;;;0.10;0.10;;;;;;;13.88;68.60;101698.94;10500175;28;20032;-81
2022/06/20 21:03:52;;;;;;;0.30;0.08;;;;;;;13.55;70.07;101692.94;10540260;28;20154;-80
2022/06/20 21:09:03;;;;;;;0.03;0.03;;;;;;;13.28;73.09;101696.53;10529745;28;20406;-81
2022/06/20 21:14:12;;;;;;;0.20;0.17;;;;;;;13.64;71.39;101700.94;10520101;28;20036;-81
2022/06/20 21:19:18;;;;;;;0.00;0.00;;;;;;;13.62;71.40;101702.63;10516584;28;20445;-81
2022/06/20 21:24:30;;;;;;;0.65;0.65;;;;;;;13.43;72.12;101697.81;10518591;28;20036;-81
2022/06/20 21:29:32;;;;;;;0.20;0.20;;;;;;;13.47;71.87;101691.84;10533695;28;20044;-80
2022/06/20 21:34:37;;;;;;;0.25;0.15;;;;;;;13.35;72.92;101707.03;10517290;28;20044;-81
2022/06/20 21:39:57;;;;;;;0.85;0.57;;;;;;;13.30;73.63;101714.66;10531121;28;20113;-81
2022/06/20 21:44:58;;;;;;;0.00;0.00;;;;;;;12.91;74.23;101708.41;10534649;28;20076;-81
2022/06/20 21:50:00;;;;;;;0.00;0.00;;;;;;;12.58;77.86;101701.38;10514883;28;20072;-80
2022/06/20 21:55:07;;;;;;;0.05;0.05;;;;;;;12.92;76.45;101692.03;10516451;28;20048;-81
2022/06/20 22:00:15;;;;;;;0.20;0.10;;;;;;;12.40;78.93;101695.66;10537281;28;20113;-81
2022/06/20 22:05:23;;;;;;;0.25;0.20;;;;;;;12.52;78.57;101696.03;10541054;28;20109;-81
2022/06/20 22:10:38;;;;;;;0.00;0.00;;;;;;;12.41;78.69;101695.72;10540295;28;20040;-80
2022/06/20 22:15:48;;;;;;;0.13;0.13;;;;;;;12.58;78.51;101700.53;10523650;28;20044;-81
2022/06/20 22:21:08;;;;;;;0.22;0.20;;;;;;;12.57;77.60;101709.97;10540875;28;20034;-81
2022/06/20 22:26:15;;;;;;;0.28;0.25;;;;;;;12.00;81.42;101698.72;10518310;28;20040;-81
2022/06/20 22:31:30;;;;;;;0.20;0.20;;;;;;;12.28;80.26;101707.34;10541007;28;20089;-81
2022/06/20 22:36:36;;;;;;;0.10;0.10;;;;;;;11.44;84.01;101698.53;10541064;28;20046;-80
2022/06/20 22:41:58;;;;;;;0.20;0.10;;;;;;;11.97;81.68;101696.03;10540500;28;20101;-81
2022/06/20 22:47:03;;;;;;;1.38;1.27;;;;;;;11.98;80.11;101697.78;10522307;28;20081;-81
2022/06/20 22:52:17;;;;;;;1.20;0.70;;;;;;;11.63;80.46;101702.63;10540087;28;20047;-81
2022/06/20 22:57:33;;;;;;;0.20;0.20;;;;;;;11.48;81.72;101699.50;10540359;28;20040;-81
2022/06/20 23:02:39;;;;;;;0.10;0.10;;;;;;;11.49;79.79;101690.94;10539491;28;20060;-81
2022/06/20 23:07:41;;;;;;;0.57;0.38;;;;;;;11.29;79.53;101688.53;10541199;28;20156;-81
2022/06/20 23:12:48;;;;;;;0.00;0.00;;;;;;;11.21;81.70;101697.69;10545589;28;20044;-81
2022/06/20 23:23:14;;;;;;;0.00;0.00;;;;;;;10.67;86.07;101701.75;10543274;28;20109;-81
2022/06/20 23:28:15;;;;;;;0.00;0.00;;;;;;;10.99;83.95;101698.63;10543203;28;20043;-81
2022/06/20 23:33:18;;;;;;;0.10;0.10;;;;;;;10.61;84.57;101706.69;10544268;28;20045;-80
2022/06/20 23:38:23;;;;;;;0.35;0.20;;;;;;;10.50;86.30;101707.94;10539043;28;20549;-81
2022/06/20 23:43:29;;;;;;;0.10;0.10;;;;;;;10.31;85.68;101707.19;10522118;28;20048;-81
2022/06/20 23:48:32;;;;;;;0.00;0.00;;;;;;;10.34;89.45;101717.59;10538848;28;20044;-81
2022/06/20 23:53:34;;;;;;;0.08;0.08;;;;;;;10.23;86.35;101706.00;10546377;28;20097;-80
2022/06/20 23:58:39;;;;;;;1.13;0.65;;;;;;;9.52;86.39;101697.09;10542589;28;20032;-81
